createdAt,value
2018-02-14T00:01:58.908Z,79.51
2018-02-14T00:04:26.384Z,79.45
2018-02-14T00:06:53.937Z,79.54
2018-02-14T00:09:21.404Z,79.54
2018-02-14T00:11:49.021Z,79.65
2018-02-14T00:14:16.483Z,79.61
2018-02-14T00:16:43.966Z,79.75
2018-02-14T00:19:11.629Z,80.04
2018-02-14T00:21:39.086Z,79.95
2018-02-14T00:24:06.595Z,80.15
2018-02-14T00:26:34.077Z,80.46
2018-02-14T00:29:01.538Z,80.44
2018-02-14T00:31:28.990Z,80.47
2018-02-14T00:33:56.498Z,80.46
2018-02-14T00:36:24.037Z,80.52
2018-02-14T00:38:51.594Z,80.44
2018-02-14T00:41:19.061Z,80.46
2018-02-14T00:43:46.523Z,80.64
2018-02-14T00:46:14.005Z,80.91
2018-02-14T00:48:41.526Z,80.83
2018-02-14T00:51:09.035Z,80.96
2018-02-14T00:53:36.512Z,81.05
2018-02-14T00:56:04.001Z,80.80
2018-02-14T00:58:31.455Z,80.85
2018-02-14T01:00:58.910Z,80.96
2018-02-14T01:03:26.394Z,81.04
2018-02-14T01:05:53.857Z,81.35
2018-02-14T01:08:21.329Z,81.23
2018-02-14T01:10:48.804Z,81.31
2018-02-14T01:13:16.267Z,81.13
2018-02-14T01:15:43.721Z,81.22
2018-02-14T01:18:11.331Z,81.24
2018-02-14T01:20:44.646Z,81.44
2018-02-14T01:23:12.115Z,81.76
2018-02-14T01:25:39.610Z,81.83
2018-02-14T01:28:07.075Z,82.20
2018-02-14T01:30:34.551Z,82.01
2018-02-14T01:33:02.036Z,81.69
2018-02-14T01:35:29.569Z,81.57
2018-02-14T01:37:57.029Z,81.96
2018-02-14T01:40:24.497Z,82.28
2018-02-14T01:42:51.989Z,82.34
2018-02-14T01:45:19.454Z,82.39
2018-02-14T01:47:46.919Z,82.49
2018-02-14T01:50:14.402Z,82.75
2018-02-14T01:52:41.961Z,82.84
2018-02-14T01:55:09.523Z,83.11
2018-02-14T01:57:37.002Z,82.92
2018-02-14T02:00:04.454Z,82.86
2018-02-14T02:02:31.996Z,82.91
2018-02-14T02:04:59.456Z,83.11
2018-02-14T02:07:26.951Z,83.13
2018-02-14T02:09:54.413Z,83.17
2018-02-14T02:12:21.877Z,83.19
2018-02-14T02:14:49.353Z,83.39
2018-02-14T02:17:16.810Z,83.69
2018-02-14T02:19:44.319Z,83.77
2018-02-14T02:22:11.782Z,83.77
2018-02-14T02:24:39.241Z,83.87
2018-02-14T02:27:06.714Z,83.96
2018-02-14T02:29:34.175Z,83.98
2018-02-14T02:32:01.674Z,84.00
2018-02-14T02:34:29.147Z,84.12
2018-02-14T02:36:56.617Z,84.27
2018-02-14T02:39:36.049Z,84.13
2018-02-14T02:42:03.526Z,84.06
2018-02-14T02:44:30.984Z,84.03
2018-02-14T02:46:58.495Z,84.00
2018-02-14T02:49:25.959Z,84.24
2018-02-14T02:51:53.532Z,84.00
2018-02-14T02:54:21.036Z,84.01
2018-02-14T02:56:48.498Z,84.22
2018-02-14T02:59:15.957Z,84.08
2018-02-14T03:01:43.443Z,83.99
2018-02-14T03:04:10.906Z,84.03
2018-02-14T03:06:38.384Z,84.30
2018-02-14T03:09:06.035Z,84.45
2018-02-14T03:11:33.493Z,84.49
2018-02-14T03:14:00.954Z,84.50
2018-02-14T03:16:28.510Z,84.48
2018-02-14T03:18:55.977Z,84.54
2018-02-14T03:21:23.439Z,84.53
2018-02-14T03:23:50.948Z,84.56
2018-02-14T03:26:18.406Z,84.42
2018-02-14T03:28:45.890Z,84.39
2018-02-14T03:31:13.346Z,84.49
2018-02-14T03:33:40.810Z,84.55
2018-02-14T03:36:08.374Z,84.55
2018-02-14T03:38:36.027Z,84.56
2018-02-14T03:41:03.491Z,84.54
2018-02-14T03:43:30.996Z,84.46
2018-02-14T03:45:58.477Z,84.36
2018-02-14T03:48:25.946Z,84.52
2018-02-14T03:50:53.406Z,84.52
2018-02-14T03:53:21.123Z,84.65
2018-02-14T03:55:48.582Z,84.65
2018-02-14T03:58:16.049Z,84.77
2018-02-14T04:00:43.647Z,84.83
2018-02-14T04:03:11.154Z,84.84
2018-02-14T04:05:38.627Z,84.98
2018-02-14T04:08:06.126Z,84.99
2018-02-14T04:10:33.590Z,85.08
2018-02-14T04:13:01.042Z,85.10
2018-02-14T04:15:28.566Z,85.16
2018-02-14T04:17:56.039Z,85.25
2018-02-14T04:20:23.496Z,85.27
2018-02-14T04:22:51.006Z,85.47
2018-02-14T04:25:18.474Z,85.52
2018-02-14T04:27:45.933Z,85.61
2018-02-14T04:30:19.285Z,85.71
2018-02-14T04:32:46.754Z,85.71
2018-02-14T04:35:14.215Z,85.86
2018-02-14T04:37:41.703Z,85.87
2018-02-14T04:40:09.167Z,85.88
2018-02-14T04:42:36.628Z,86.00
2018-02-14T04:45:04.106Z,86.15
2018-02-14T04:47:31.569Z,86.18
2018-02-14T04:49:59.041Z,86.44
2018-02-14T04:52:26.498Z,86.25
2018-02-14T04:54:53.957Z,85.82
2018-02-14T04:57:21.474Z,85.75
2018-02-14T04:59:48.933Z,85.69
2018-02-14T05:02:16.402Z,85.75
2018-02-14T05:04:43.998Z,85.80
2018-02-14T05:07:11.490Z,85.86
2018-02-14T05:09:38.949Z,85.89
2018-02-14T05:12:06.483Z,86.19
2018-02-14T05:14:34.014Z,86.30
2018-02-14T05:17:01.521Z,86.34
2018-02-14T05:19:28.998Z,86.33
2018-02-14T05:21:56.535Z,86.87
2018-02-14T05:24:23.995Z,86.92
2018-02-14T05:26:51.478Z,86.74
2018-02-14T05:29:18.938Z,86.83
2018-02-14T05:31:46.394Z,87.00
2018-02-14T05:34:13.866Z,87.00
2018-02-14T05:36:41.347Z,87.07
2018-02-14T05:39:08.812Z,87.40
2018-02-14T05:41:36.378Z,87.53
2018-02-14T05:44:03.854Z,87.70
2018-02-14T05:46:31.318Z,87.64
2018-02-14T05:48:58.824Z,87.62
2018-02-14T05:51:26.281Z,87.65
2018-02-14T05:53:53.750Z,87.70
2018-02-14T05:56:21.225Z,87.76
2018-02-14T05:58:48.750Z,87.74
2018-02-14T06:01:16.277Z,87.83
2018-02-14T06:03:43.751Z,87.84
2018-02-14T06:06:11.210Z,87.88
2018-02-14T06:08:38.685Z,87.98
2018-02-14T06:11:06.173Z,87.83
2018-02-14T06:13:33.702Z,87.83
2018-02-14T06:16:01.161Z,88.42
2018-02-14T06:18:28.648Z,88.42
2018-02-14T06:20:56.112Z,88.28
2018-02-14T06:23:23.579Z,87.90
2018-02-14T06:25:51.074Z,87.75
2018-02-14T06:28:18.526Z,87.84
2018-02-14T06:30:45.984Z,87.74
2018-02-14T06:33:13.494Z,87.77
2018-02-14T06:35:40.979Z,87.63
2018-02-14T06:38:08.442Z,87.43
2018-02-14T06:40:35.922Z,87.39
2018-02-14T06:43:03.387Z,87.33
2018-02-14T06:45:30.859Z,87.23
2018-02-14T06:47:58.345Z,87.58
2018-02-14T06:50:25.821Z,87.47
2018-02-14T06:55:31.424Z,87.13
2018-02-14T06:57:58.988Z,86.88
2018-02-14T07:00:26.451Z,86.68
2018-02-14T07:02:53.960Z,86.63
2018-02-14T07:05:21.439Z,86.46
2018-02-14T07:07:48.901Z,86.45
2018-02-14T07:10:16.470Z,86.59
2018-02-14T07:12:43.927Z,86.74
2018-02-14T07:15:11.492Z,86.52
2018-02-14T07:17:38.998Z,86.52
2018-02-14T07:20:06.460Z,86.40
2018-02-14T07:22:33.918Z,86.31
2018-02-14T07:25:01.402Z,86.22
2018-02-14T07:27:28.883Z,85.90
2018-02-14T07:29:56.355Z,85.90
2018-02-14T07:32:23.940Z,85.75
2018-02-14T07:34:51.412Z,85.45
2018-02-14T07:37:18.878Z,85.43
2018-02-14T07:39:46.383Z,85.40
2018-02-14T07:42:13.858Z,85.06
2018-02-14T07:44:41.320Z,84.69
2018-02-14T07:47:08.793Z,84.37
2018-02-14T07:49:36.294Z,83.99
2018-02-14T07:52:03.749Z,83.77
2018-02-14T07:54:31.208Z,83.51
2018-02-14T07:56:58.768Z,83.37
2018-02-14T07:59:26.226Z,83.18
2018-02-14T08:01:53.730Z,82.94
2018-02-14T08:04:21.223Z,82.76
2018-02-14T08:06:48.687Z,82.46
2018-02-14T08:09:16.177Z,82.34
2018-02-14T08:11:43.656Z,81.79
2018-02-14T08:14:11.117Z,81.56
2018-02-14T08:16:38.635Z,81.18
2018-02-14T08:19:06.153Z,81.06
2018-02-14T08:21:33.618Z,80.96
2018-02-14T08:24:01.114Z,80.71
2018-02-14T08:26:28.661Z,80.36
2018-02-14T08:28:56.229Z,79.89
2018-02-14T08:31:23.985Z,79.72
2018-02-14T08:33:51.732Z,79.66
2018-02-14T08:36:19.196Z,79.44
2018-02-14T08:38:46.764Z,79.42
2018-02-14T08:41:14.224Z,79.31
2018-02-14T08:43:41.691Z,79.10
2018-02-14T08:46:09.178Z,78.69
2018-02-14T08:48:36.634Z,78.38
2018-02-14T08:51:04.106Z,78.43
2018-02-14T08:53:31.609Z,78.35
2018-02-14T08:55:59.114Z,77.95
2018-02-14T08:58:26.629Z,77.89
2018-02-14T09:00:54.182Z,77.54
2018-02-14T09:03:21.641Z,77.31
2018-02-14T09:05:49.130Z,77.01
2018-02-14T09:08:16.581Z,76.78
2018-02-14T09:10:44.039Z,76.50
2018-02-14T09:13:11.550Z,76.12
2018-02-14T09:15:39.010Z,75.70
2018-02-14T09:18:06.466Z,75.36
2018-02-14T09:20:33.940Z,75.02
2018-02-14T09:23:01.390Z,75.04
2018-02-14T09:25:28.846Z,74.94
2018-02-14T09:27:56.421Z,74.21
2018-02-14T09:30:23.873Z,74.14
2018-02-14T09:32:51.326Z,73.55
2018-02-14T09:35:18.960Z,72.87
2018-02-14T09:37:46.476Z,71.76
2018-02-14T09:40:13.930Z,70.00
2018-02-14T09:42:41.401Z,69.52
2018-02-14T09:45:08.857Z,69.90
2018-02-14T09:47:36.458Z,70.82
2018-02-14T09:50:03.922Z,71.15
2018-02-14T09:52:31.378Z,71.84
2018-02-14T09:54:58.860Z,71.83
2018-02-14T09:57:26.327Z,71.58
2018-02-14T09:59:53.813Z,71.18
2018-02-14T10:02:21.302Z,71.62
2018-02-14T10:04:48.781Z,72.09
2018-02-14T10:07:16.238Z,71.07
2018-02-14T10:09:43.722Z,70.42
2018-02-14T10:12:11.262Z,69.72
2018-02-14T10:14:38.810Z,69.33
2018-02-14T10:17:06.276Z,68.33
2018-02-14T10:19:33.733Z,68.21
2018-02-14T10:22:01.238Z,68.56
2018-02-14T10:24:28.746Z,68.46
2018-02-14T10:26:56.218Z,69.01
2018-02-14T10:29:23.866Z,68.62
2018-02-14T10:31:51.426Z,68.82
2018-02-14T10:34:19.004Z,69.53
2018-02-14T10:36:46.500Z,69.09
2018-02-14T10:39:13.958Z,68.78
2018-02-14T10:41:41.413Z,68.08
2018-02-14T10:44:08.882Z,66.71
2018-02-14T10:46:36.355Z,66.44
2018-02-14T10:49:03.939Z,65.55
2018-02-14T10:51:31.431Z,63.57
2018-02-14T10:53:58.890Z,64.54
2018-02-14T10:56:26.486Z,64.97
2018-02-14T10:58:53.942Z,65.25
2018-02-14T11:01:26.993Z,64.99
2018-02-14T11:03:54.462Z,64.88
2018-02-14T11:06:27.650Z,64.91
2018-02-14T11:08:55.129Z,65.69
2018-02-14T11:11:22.599Z,65.61
2018-02-14T11:13:50.089Z,65.66
2018-02-14T11:16:17.631Z,65.14
2018-02-14T11:18:45.097Z,64.68
2018-02-14T11:21:12.649Z,64.43
2018-02-14T11:23:40.302Z,65.15
2018-02-14T11:26:07.754Z,64.90
2018-02-14T11:28:35.211Z,65.57
2018-02-14T11:31:02.698Z,65.98
2018-02-14T11:33:30.153Z,63.77
2018-02-14T11:35:57.658Z,62.13
2018-02-14T11:38:25.125Z,62.56
2018-02-14T11:40:52.605Z,62.19
2018-02-14T11:43:20.074Z,63.10
2018-02-14T11:45:47.566Z,62.04
2018-02-14T11:48:15.066Z,62.62
2018-02-14T11:50:42.527Z,63.15
2018-02-14T11:53:10.147Z,62.37
2018-02-14T11:55:37.761Z,62.55
2018-02-14T11:58:05.223Z,62.20
2018-02-14T12:00:32.688Z,61.97
2018-02-14T12:03:00.189Z,62.00
2018-02-14T12:05:27.642Z,61.92
2018-02-14T12:07:55.117Z,61.14
2018-02-14T12:10:22.623Z,60.05
2018-02-14T12:12:50.093Z,59.01
2018-02-14T12:15:17.554Z,58.90
2018-02-14T12:17:45.211Z,59.27
2018-02-14T12:20:12.680Z,59.63
2018-02-14T12:22:40.155Z,59.54
2018-02-14T12:25:07.808Z,58.37
2018-02-14T12:27:35.312Z,57.24
2018-02-14T12:30:02.770Z,56.65
2018-02-14T12:32:30.277Z,55.43
2018-02-14T12:34:57.801Z,55.90
2018-02-14T12:37:25.288Z,56.99
2018-02-14T12:39:52.897Z,55.98
2018-02-14T12:42:20.346Z,55.86
2018-02-14T12:44:47.806Z,55.51
2018-02-14T12:47:15.327Z,55.70
2018-02-14T12:49:42.793Z,56.34
2018-02-14T12:52:10.254Z,57.36
2018-02-14T12:54:37.756Z,56.90
2018-02-14T12:57:05.206Z,57.12
2018-02-14T12:59:32.658Z,57.56
2018-02-14T13:02:00.233Z,57.39
2018-02-14T13:04:27.786Z,56.97
2018-02-14T13:06:55.246Z,57.14
2018-02-14T13:09:22.906Z,56.01
2018-02-14T13:11:50.371Z,55.66
2018-02-14T13:14:17.827Z,55.12
2018-02-14T13:16:45.309Z,54.07
2018-02-14T13:19:12.783Z,53.47
2018-02-14T13:21:40.239Z,53.87
2018-02-14T13:24:07.722Z,53.97
2018-02-14T13:26:35.174Z,53.47
2018-02-14T13:29:02.667Z,53.32
2018-02-14T13:31:30.130Z,53.62
2018-02-14T13:33:57.589Z,53.25
2018-02-14T13:36:25.183Z,53.98
2018-02-14T13:38:52.649Z,54.23
2018-02-14T13:41:20.106Z,53.59
2018-02-14T13:43:47.577Z,53.92
2018-02-14T13:46:15.030Z,53.49
2018-02-14T13:48:42.497Z,53.53
2018-02-14T13:51:09.974Z,54.20
2018-02-14T13:53:37.424Z,55.37
2018-02-14T13:56:04.891Z,56.06
2018-02-14T13:58:32.381Z,56.18
2018-02-14T14:00:59.910Z,55.82
2018-02-14T14:03:27.366Z,55.77
2018-02-14T14:05:54.962Z,56.39
2018-02-14T14:08:22.429Z,56.73
2018-02-14T14:10:49.938Z,57.15
2018-02-14T14:13:17.426Z,57.09
2018-02-14T14:15:44.881Z,57.16
2018-02-14T14:18:12.410Z,56.37
2018-02-14T14:20:40.084Z,55.81
2018-02-14T14:23:07.547Z,55.03
2018-02-14T14:25:35.002Z,54.62
2018-02-14T14:28:02.467Z,54.75
2018-02-14T14:30:29.915Z,55.47
2018-02-14T14:32:57.389Z,56.62
2018-02-14T14:35:24.918Z,57.12
2018-02-14T14:37:52.371Z,57.44
2018-02-14T14:40:19.850Z,57.62
2018-02-14T14:42:47.306Z,57.37
2018-02-14T14:45:14.865Z,57.57
2018-02-14T14:47:42.362Z,57.93
2018-02-14T14:50:09.828Z,58.29
2018-02-14T14:52:37.287Z,58.43
2018-02-14T14:55:04.792Z,58.29
2018-02-14T14:57:32.340Z,58.15
2018-02-14T14:59:59.807Z,58.79
2018-02-14T15:02:27.316Z,59.50
2018-02-14T15:04:54.774Z,60.18
2018-02-14T15:07:22.483Z,60.26
2018-02-14T15:09:49.977Z,59.16
2018-02-14T15:12:17.437Z,59.17
2018-02-14T15:14:44.969Z,59.52
2018-02-14T15:17:12.441Z,60.02
2018-02-14T15:19:39.893Z,60.66
2018-02-14T15:22:07.388Z,60.62
2018-02-14T15:24:34.838Z,61.21
2018-02-14T15:27:02.325Z,61.72
2018-02-14T15:29:29.793Z,62.20
2018-02-14T15:31:57.292Z,62.29
2018-02-14T15:34:24.818Z,62.55
2018-02-14T15:36:52.278Z,62.76
2018-02-14T15:39:19.830Z,62.86
2018-02-14T15:41:47.558Z,62.89
2018-02-14T15:44:15.037Z,63.08
2018-02-14T15:46:42.512Z,63.40
2018-02-14T15:49:10.075Z,63.71
2018-02-14T15:51:37.587Z,63.99
2018-02-14T15:54:05.046Z,64.57
2018-02-14T15:56:32.500Z,64.72
2018-02-14T15:59:00.118Z,65.01
2018-02-14T16:01:27.580Z,64.87
2018-02-14T16:03:55.066Z,65.15
2018-02-14T16:06:22.535Z,65.82
2018-02-14T16:08:49.994Z,65.95
2018-02-14T16:11:17.493Z,66.43
2018-02-14T16:13:45.049Z,67.01
2018-02-14T16:16:12.611Z,67.57
2018-02-14T16:18:40.066Z,68.33
2018-02-14T16:21:07.625Z,68.83
2018-02-14T16:23:35.078Z,69.37
2018-02-14T16:26:02.526Z,69.70
2018-02-14T16:28:30.102Z,70.27
2018-02-14T16:30:57.658Z,70.62
2018-02-14T16:33:25.116Z,70.66
2018-02-14T16:35:52.586Z,71.06
2018-02-14T16:38:20.153Z,71.20
2018-02-14T16:40:47.622Z,71.50
2018-02-14T16:43:15.083Z,71.80
2018-02-14T16:45:42.538Z,72.32
2018-02-14T16:48:10.036Z,72.66
2018-02-14T16:50:37.494Z,73.07
2018-02-14T16:53:04.954Z,73.54
2018-02-14T16:55:32.640Z,73.88
2018-02-14T16:58:00.107Z,73.90
2018-02-14T17:00:27.561Z,74.12
2018-02-14T17:02:55.065Z,74.75
2018-02-14T17:05:22.523Z,75.02
2018-02-14T17:07:49.981Z,75.37
2018-02-14T17:10:17.577Z,75.64
2018-02-14T17:12:45.034Z,75.90
2018-02-14T17:15:12.491Z,76.33
2018-02-14T17:17:39.966Z,76.46
2018-02-14T17:20:07.421Z,76.50
2018-02-14T17:22:34.961Z,76.53
2018-02-14T17:25:02.406Z,76.69
2018-02-14T17:27:29.875Z,77.57
2018-02-14T17:29:57.444Z,77.89
2018-02-14T17:32:25.001Z,78.24
2018-02-14T17:34:52.457Z,78.45
2018-02-14T17:37:20.060Z,78.45
2018-02-14T17:39:47.519Z,78.70
2018-02-14T17:42:14.970Z,78.87
2018-02-14T17:44:42.457Z,79.07
2018-02-14T17:47:09.918Z,79.40
2018-02-14T17:49:37.370Z,79.96
2018-02-14T17:52:04.891Z,80.21
2018-02-14T17:54:32.349Z,80.29
2018-02-14T17:56:59.818Z,80.53
2018-02-14T17:59:27.309Z,80.85
2018-02-14T18:01:54.944Z,81.52
2018-02-14T18:04:22.760Z,81.16
2018-02-14T18:06:50.215Z,81.71
2018-02-14T18:09:17.684Z,82.04
2018-02-14T18:11:45.283Z,82.28
2018-02-14T18:14:12.905Z,82.53
2018-02-14T18:16:40.559Z,82.73
2018-02-14T18:19:08.097Z,83.03
2018-02-14T18:21:35.543Z,83.43
2018-02-14T18:24:03.048Z,83.74
2018-02-14T18:26:30.507Z,83.97
2018-02-14T18:28:57.997Z,84.31
2018-02-14T18:31:25.524Z,84.41
2018-02-14T18:33:53.003Z,84.46
2018-02-14T18:36:20.618Z,84.70
2018-02-14T18:38:48.093Z,85.04
2018-02-14T18:41:15.558Z,85.00
2018-02-14T18:43:43.027Z,84.90
2018-02-14T18:46:10.555Z,84.88
2018-02-14T18:48:38.014Z,85.10
2018-02-14T18:51:05.502Z,85.29
2018-02-14T18:53:32.988Z,85.46
2018-02-14T18:56:00.446Z,85.92
2018-02-14T18:58:28.154Z,86.04
2018-02-14T19:00:55.708Z,86.38
2018-02-14T19:03:23.178Z,86.24
2018-02-14T19:05:50.684Z,86.58
2018-02-14T19:08:18.137Z,86.63
2018-02-14T19:10:45.602Z,86.87
2018-02-14T19:13:13.298Z,86.95
2018-02-14T19:15:40.762Z,87.29
2018-02-14T19:18:08.402Z,87.27
2018-02-14T19:20:35.916Z,87.37
2018-02-14T19:23:03.386Z,87.42
2018-02-14T19:25:30.851Z,88.23
2018-02-14T19:27:58.556Z,88.64
2018-02-14T19:30:26.114Z,89.00
2018-02-14T19:32:53.579Z,89.22
2018-02-14T19:35:21.126Z,89.33
2018-02-14T19:37:48.584Z,89.41
2018-02-14T19:40:16.051Z,89.41
2018-02-14T19:42:43.554Z,89.29
2018-02-14T19:45:11.020Z,89.35
2018-02-14T19:47:38.512Z,88.60
2018-02-14T19:50:06.023Z,88.02
2018-02-14T19:52:33.545Z,87.86
2018-02-14T19:55:01.007Z,87.75
2018-02-14T19:57:28.502Z,88.23
2018-02-14T19:59:55.990Z,88.78
2018-02-14T20:02:23.452Z,89.33
2018-02-14T20:04:50.954Z,89.43
2018-02-14T20:07:18.444Z,89.71
2018-02-14T20:09:45.941Z,90.06
2018-02-14T20:12:13.595Z,90.24
2018-02-14T20:14:41.050Z,90.42
2018-02-14T20:17:08.523Z,90.79
2018-02-14T20:19:36.034Z,90.92
2018-02-14T20:22:03.493Z,90.85
2018-02-14T20:24:30.962Z,90.59
2018-02-14T20:26:58.587Z,90.56
2018-02-14T20:29:26.112Z,90.45
2018-02-14T20:31:53.619Z,90.26
2018-02-14T20:34:21.107Z,90.01
2018-02-14T20:36:48.680Z,89.58
2018-02-14T20:39:16.172Z,89.19
2018-02-14T20:41:43.648Z,89.66
2018-02-14T20:44:11.110Z,89.96
2018-02-14T20:46:38.606Z,90.41
2018-02-14T20:49:06.064Z,90.09
2018-02-14T20:51:33.627Z,89.51
2018-02-14T20:54:01.142Z,89.06
2018-02-14T20:56:28.609Z,88.91
2018-02-14T20:58:56.116Z,88.85
2018-02-14T21:01:23.605Z,88.56
2018-02-14T21:03:51.114Z,88.76
2018-02-14T21:06:18.679Z,89.05
2018-02-14T21:08:46.238Z,89.06
2018-02-14T21:11:13.708Z,89.07
2018-02-14T21:13:41.161Z,89.13
2018-02-14T21:16:08.630Z,88.92
2018-02-14T21:18:36.110Z,88.72
2018-02-14T21:21:03.770Z,88.98
2018-02-14T21:23:31.243Z,89.10
2018-02-14T21:25:58.790Z,89.42
2018-02-14T21:28:26.270Z,89.61
2018-02-14T21:30:53.749Z,89.38
2018-02-14T21:33:21.246Z,89.10
2018-02-14T21:35:48.725Z,89.19
2018-02-14T21:38:16.192Z,89.24
2018-02-14T21:40:43.691Z,89.27
2018-02-14T21:43:11.152Z,89.63
2018-02-14T21:45:38.613Z,89.39
2018-02-14T21:48:06.113Z,89.03
2018-02-14T21:50:33.585Z,89.58
2018-02-14T21:53:01.043Z,90.01
2018-02-14T21:55:28.532Z,90.36
2018-02-14T21:57:56.092Z,90.15
2018-02-14T22:00:23.574Z,90.10
2018-02-14T22:02:51.112Z,90.01
2018-02-14T22:05:18.577Z,89.82
2018-02-14T22:07:46.036Z,89.41
2018-02-14T22:10:13.526Z,89.64
2018-02-14T22:12:40.994Z,90.33
2018-02-14T22:15:08.494Z,90.83
2018-02-14T22:17:35.976Z,90.88
2018-02-14T22:20:03.452Z,90.71
2018-02-14T22:22:30.919Z,90.44
2018-02-14T22:24:58.403Z,90.29
2018-02-14T22:27:25.870Z,90.62
2018-02-14T22:29:53.342Z,91.04
2018-02-14T22:32:20.817Z,91.27
2018-02-14T22:34:48.274Z,91.17
2018-02-14T22:37:15.733Z,90.78
2018-02-14T22:39:43.231Z,90.51
2018-02-14T22:42:10.730Z,89.80
2018-02-14T22:44:38.224Z,89.49
2018-02-14T22:47:05.687Z,89.72
2018-02-14T22:49:33.149Z,90.00
2018-02-14T22:52:00.659Z,90.25
2018-02-14T22:54:28.236Z,90.27
2018-02-14T22:56:55.700Z,90.02
2018-02-14T22:59:23.211Z,89.99
2018-02-14T23:01:50.671Z,90.19
2018-02-14T23:04:18.130Z,90.38
2018-02-14T23:06:45.615Z,90.40
2018-02-14T23:09:13.169Z,89.90
2018-02-14T23:11:40.643Z,90.76
2018-02-14T23:14:08.145Z,89.87
2018-02-14T23:16:35.634Z,89.28
2018-02-14T23:19:03.096Z,89.25
2018-02-14T23:21:30.594Z,89.41
2018-02-14T23:23:58.071Z,89.64
2018-02-14T23:26:25.612Z,89.93
2018-02-14T23:28:53.091Z,90.02
2018-02-14T23:31:20.553Z,89.58
2018-02-14T23:33:48.046Z,89.29
2018-02-14T23:36:15.596Z,89.18
2018-02-14T23:38:43.059Z,88.99
2018-02-14T23:41:10.545Z,89.16
2018-02-14T23:43:38.010Z,89.42
2018-02-14T23:46:05.466Z,89.99
2018-02-14T23:48:32.950Z,90.14
2018-02-14T23:51:00.406Z,90.16
2018-02-14T23:53:27.876Z,90.20
2018-02-14T23:55:55.386Z,89.96
2018-02-14T23:58:22.843Z,89.65
